createdAt,value
2023-02-26T00:03:12.411Z,99349.22
2023-02-26T00:08:14.030Z,99359.53
2023-02-26T00:13:16.073Z,99362.94
2023-02-26T00:18:18.491Z,99377.53
2023-02-26T00:23:20.425Z,99375.00
2023-02-26T00:28:22.379Z,99382.63
2023-02-26T00:33:24.252Z,99387.72
2023-02-26T00:38:34.734Z,99388.69
2023-02-26T00:43:36.604Z,99397.31
2023-02-26T00:48:56.893Z,99392.06
2023-02-26T00:54:10.655Z,99387.75
2023-02-26T00:59:12.271Z,99393.00
2023-02-26T01:04:15.642Z,99398.91
2023-02-26T01:09:27.892Z,99399.78
2023-02-26T01:14:32.192Z,99403.25
2023-02-26T01:19:45.940Z,99400.72
2023-02-26T01:24:59.809Z,99405.78
2023-02-26T01:30:01.860Z,99408.34
2023-02-26T01:35:15.781Z,99403.09
2023-02-26T01:40:20.088Z,99414.31
2023-02-26T01:45:31.872Z,99413.56
2023-02-26T01:50:38.529Z,99422.16
2023-02-26T01:55:44.385Z,99424.75
2023-02-26T02:00:46.076Z,99438.41
2023-02-26T02:05:52.467Z,99448.78
2023-02-26T02:10:54.819Z,99460.84
2023-02-26T02:16:04.884Z,99456.50
2023-02-26T02:21:37.662Z,99465.94
2023-02-26T02:27:03.973Z,99466.88
2023-02-26T02:32:14.388Z,99481.38
2023-02-26T02:37:44.624Z,99487.47
2023-02-26T02:42:59.489Z,99493.59
2023-02-26T02:48:12.412Z,99498.72
2023-02-26T02:53:20.240Z,99512.41
2023-02-26T02:58:29.370Z,99515.09
2023-02-26T03:03:52.217Z,99529.72
2023-02-26T03:08:54.310Z,99524.56
2023-02-26T03:13:56.366Z,99540.84
2023-02-26T03:19:41.071Z,99549.41
2023-02-26T03:24:52.563Z,99549.50
2023-02-26T03:29:57.135Z,99563.25
2023-02-26T03:35:05.968Z,99564.94
2023-02-26T03:40:13.867Z,99574.41
2023-02-26T03:45:26.540Z,99582.22
2023-02-26T03:50:41.265Z,99602.84
2023-02-26T03:56:21.177Z,99605.50
2023-02-26T04:01:46.535Z,99614.84
2023-02-26T04:06:53.612Z,99613.13
2023-02-26T04:11:58.499Z,99620.03
2023-02-26T04:17:00.380Z,99627.88
2023-02-26T04:22:02.351Z,99637.22
2023-02-26T04:27:04.161Z,99639.72
2023-02-26T04:32:07.383Z,99657.84
2023-02-26T04:37:09.181Z,99663.13
2023-02-26T04:42:12.156Z,99671.00
2023-02-26T04:47:14.292Z,99668.31
2023-02-26T04:52:17.153Z,99673.59
2023-02-26T04:57:19.243Z,99685.50
2023-02-26T05:02:21.074Z,99696.75
2023-02-26T05:07:25.610Z,99704.63
2023-02-26T05:12:27.302Z,99713.88
2023-02-26T05:17:28.982Z,99711.28
2023-02-26T05:22:30.669Z,99718.16
2023-02-26T05:27:33.210Z,99718.13
2023-02-26T05:32:34.827Z,99733.66
2023-02-26T05:37:36.999Z,99741.47
2023-02-26T05:42:39.905Z,99742.19
2023-02-26T05:47:41.692Z,99758.41
2023-02-26T05:52:43.421Z,99769.69
2023-02-26T05:57:45.056Z,99776.47
2023-02-26T06:02:46.739Z,99783.28
2023-02-26T06:07:48.579Z,99790.38
2023-02-26T06:12:50.283Z,99798.06
2023-02-26T06:17:51.980Z,99803.97
2023-02-26T06:22:53.959Z,99810.00
2023-02-26T06:27:55.605Z,99823.00
2023-02-26T06:32:57.561Z,99836.78
2023-02-26T06:37:59.328Z,99836.78
2023-02-26T06:43:01.092Z,99856.53
2023-02-26T06:48:02.854Z,99865.13
2023-02-26T06:53:07.855Z,99868.75
2023-02-26T06:58:09.621Z,99883.34
2023-02-26T07:03:17.072Z,99896.25
2023-02-26T07:08:18.640Z,99894.41
2023-02-26T07:13:20.391Z,99906.69
2023-02-26T07:18:22.131Z,99916.03
2023-02-26T07:23:23.832Z,99923.06
2023-02-26T07:28:25.492Z,99929.69
2023-02-26T07:33:28.498Z,99934.22
2023-02-26T07:38:30.136Z,99943.84
2023-02-26T07:43:31.861Z,99948.94
2023-02-26T07:48:33.571Z,99954.09
2023-02-26T07:53:35.429Z,99962.81
2023-02-26T07:58:37.253Z,99969.81
2023-02-26T08:03:38.912Z,99972.28
2023-02-26T08:08:40.557Z,99977.56
2023-02-26T08:13:42.234Z,99984.63
2023-02-26T08:18:43.970Z,99995.50
2023-02-26T08:23:45.702Z,99998.94
2023-02-26T08:28:48.296Z,100008.41
2023-02-26T08:33:50.139Z,100019.78
2023-02-26T08:38:52.581Z,100024.13
2023-02-26T08:43:54.235Z,100027.75
2023-02-26T08:48:55.856Z,100044.97
2023-02-26T08:53:57.612Z,100045.72
2023-02-26T08:58:59.238Z,100052.38
2023-02-26T09:04:00.944Z,100064.44
2023-02-26T09:09:03.131Z,100064.44
2023-02-26T09:14:05.171Z,100078.13
2023-02-26T09:19:07.487Z,100078.31
2023-02-26T09:24:09.171Z,100085.19
2023-02-26T09:29:11.523Z,100106.59
2023-02-26T09:34:13.753Z,100109.88
2023-02-26T09:39:15.354Z,100122.91
2023-02-26T09:44:21.573Z,100121.50
2023-02-26T09:49:47.889Z,100122.34
2023-02-26T09:54:58.458Z,100132.66
2023-02-26T10:00:00.710Z,100141.44
2023-02-26T10:05:23.289Z,100147.56
2023-02-26T10:10:44.976Z,100150.41
2023-02-26T10:15:50.555Z,100163.38
2023-02-26T10:21:18.163Z,100174.38
2023-02-26T10:26:24.601Z,100183.75
2023-02-26T10:31:32.891Z,100185.94
2023-02-26T10:36:45.187Z,100201.41
2023-02-26T10:41:47.078Z,100200.56
2023-02-26T10:47:01.571Z,100209.28
2023-02-26T10:52:13.729Z,100209.94
2023-02-26T10:57:34.406Z,100211.75
2023-02-26T11:02:41.970Z,100220.84
2023-02-26T11:07:45.569Z,100218.38
2023-02-26T11:12:47.435Z,100220.84
2023-02-26T11:17:53.419Z,100214.91
2023-02-26T11:22:58.216Z,100222.81
2023-02-26T11:28:07.341Z,100220.34
2023-02-26T11:33:23.790Z,100224.75
2023-02-26T11:38:27.792Z,100228.78
2023-02-26T11:44:04.247Z,100227.78
2023-02-26T11:49:05.907Z,100233.81
2023-02-26T11:54:21.360Z,100227.63
2023-02-26T11:59:25.165Z,100231.84
2023-02-26T12:04:27.855Z,100237.97
2023-02-26T12:09:29.698Z,100235.56
2023-02-26T12:14:50.195Z,100232.22
2023-02-26T12:20:40.796Z,100238.22
2023-02-26T12:25:45.421Z,100250.34
2023-02-26T12:31:24.481Z,100240.84
2023-02-26T12:36:48.427Z,100247.88
2023-02-26T12:41:51.298Z,100252.38
2023-02-26T12:47:19.377Z,100261.56
2023-02-26T12:52:44.115Z,100266.59
2023-02-26T12:58:05.090Z,100267.41
2023-02-26T13:03:09.636Z,100268.31
2023-02-26T13:08:23.214Z,100265.84
2023-02-26T13:13:39.680Z,100280.56
2023-02-26T13:19:03.974Z,100283.31
2023-02-26T13:24:25.997Z,100280.72
2023-02-26T13:29:32.599Z,100281.63
2023-02-26T13:34:52.687Z,100288.75
2023-02-26T13:40:06.628Z,100294.88
2023-02-26T13:45:35.441Z,100316.88
2023-02-26T13:50:56.765Z,100319.84
2023-02-26T13:56:15.686Z,100324.72
2023-02-26T14:01:20.651Z,100312.56
2023-02-26T14:06:28.412Z,100321.50
2023-02-26T14:11:43.671Z,100318.09
2023-02-26T14:16:50.205Z,100314.38
2023-02-26T14:22:14.560Z,100317.72
2023-02-26T14:27:16.234Z,100318.81
2023-02-26T14:32:30.980Z,100305.06
2023-02-26T14:37:37.350Z,100324.78
2023-02-26T14:43:10.895Z,100324.09
2023-02-26T14:48:18.843Z,100321.88
2023-02-26T14:53:41.978Z,100324.81
2023-02-26T14:59:00.627Z,100333.31
2023-02-26T15:04:19.406Z,100339.25
2023-02-26T15:09:48.905Z,100338.44
2023-02-26T15:14:59.664Z,100344.63
2023-02-26T15:20:08.711Z,100347.84
2023-02-26T15:25:31.847Z,100352.56
2023-02-26T15:30:35.188Z,100360.28
2023-02-26T15:35:36.897Z,100367.00
2023-02-26T15:40:39.197Z,100366.31
2023-02-26T15:45:44.070Z,100375.56
2023-02-26T15:50:50.364Z,100380.84
2023-02-26T15:55:55.159Z,100376.78
2023-02-26T16:01:01.115Z,100377.75
2023-02-26T16:06:03.997Z,100386.16
2023-02-26T16:11:06.230Z,100403.47
2023-02-26T16:16:14.143Z,100397.19
2023-02-26T16:21:38.432Z,100402.38
2023-02-26T16:26:44.783Z,100406.53
2023-02-26T16:31:52.602Z,100405.63
2023-02-26T16:36:56.365Z,100417.69
2023-02-26T16:42:08.999Z,100415.88
2023-02-26T16:47:11.044Z,100430.50
2023-02-26T16:52:18.645Z,100434.88
2023-02-26T16:57:29.737Z,100445.84
2023-02-26T17:02:36.887Z,100455.91
2023-02-26T17:07:48.505Z,100466.72
2023-02-26T17:12:53.247Z,100476.97
2023-02-26T17:17:58.898Z,100480.56
2023-02-26T17:23:03.260Z,100487.44
2023-02-26T17:28:06.123Z,100492.09
2023-02-26T17:33:13.097Z,100500.94
2023-02-26T17:38:16.055Z,100516.63
2023-02-26T17:43:17.742Z,100514.75
2023-02-26T17:48:19.405Z,100523.50
2023-02-26T17:53:23.310Z,100534.56
2023-02-26T17:58:30.609Z,100539.50
2023-02-26T18:03:32.250Z,100545.91
2023-02-26T18:08:35.090Z,100545.84
2023-02-26T18:13:36.862Z,100558.47
2023-02-26T18:18:39.209Z,100558.31
2023-02-26T18:23:41.310Z,100555.28
2023-02-26T18:28:43.808Z,100570.03
2023-02-26T18:33:45.973Z,100574.44
2023-02-26T18:38:47.790Z,100582.84
2023-02-26T18:43:49.480Z,100590.00
2023-02-26T18:48:51.562Z,100593.66
2023-02-26T18:53:54.320Z,100593.31
2023-02-26T18:58:55.961Z,100603.53
2023-02-26T19:03:57.742Z,100620.78
2023-02-26T19:09:02.670Z,100618.53
2023-02-26T19:14:05.131Z,100629.34
2023-02-26T19:19:10.620Z,100637.31
2023-02-26T19:24:13.949Z,100633.34
2023-02-26T19:29:18.781Z,100639.69
2023-02-26T19:34:20.567Z,100655.81
2023-02-26T19:39:22.983Z,100655.78
2023-02-26T19:44:27.533Z,100664.50
2023-02-26T19:49:30.091Z,100671.44
2023-02-26T19:54:32.032Z,100673.28
2023-02-26T19:59:34.144Z,100685.00
2023-02-26T20:04:36.319Z,100684.50
2023-02-26T20:09:37.985Z,100700.50
2023-02-26T20:14:39.919Z,100703.22
2023-02-26T20:19:41.814Z,100711.31
2023-02-26T20:24:43.877Z,100721.63
2023-02-26T20:29:45.808Z,100726.69
2023-02-26T20:34:47.625Z,100725.69
2023-02-26T20:39:49.497Z,100735.28
2023-02-26T20:44:51.221Z,100727.09
2023-02-26T20:49:52.844Z,100732.13
2023-02-26T20:54:54.430Z,100731.09
2023-02-26T20:59:56.199Z,100740.53
2023-02-26T21:04:57.799Z,100740.06
2023-02-26T21:09:59.732Z,100754.53
2023-02-26T21:15:01.354Z,100756.06
2023-02-26T21:20:06.044Z,100756.00
2023-02-26T21:25:09.083Z,100756.63
2023-02-26T21:30:12.529Z,100768.69
2023-02-26T21:35:16.194Z,100769.81
2023-02-26T21:40:17.996Z,100774.94
2023-02-26T21:45:19.704Z,100772.66
2023-02-26T21:50:21.456Z,100774.81
2023-02-26T21:55:23.412Z,100774.66
2023-02-26T22:00:25.139Z,100778.75
2023-02-26T22:05:27.267Z,100785.72
2023-02-26T22:10:28.910Z,100789.41
2023-02-26T22:15:30.680Z,100794.81
2023-02-26T22:20:32.402Z,100795.25
2023-02-26T22:25:34.103Z,100798.63
2023-02-26T22:30:35.912Z,100796.03
2023-02-26T22:35:37.691Z,100804.06
2023-02-26T22:40:39.348Z,100806.47
2023-02-26T22:45:41.028Z,100810.16
2023-02-26T22:50:43.153Z,100811.78
2023-02-26T22:55:44.852Z,100811.16
2023-02-26T23:00:46.584Z,100813.31
2023-02-26T23:05:48.256Z,100812.38
2023-02-26T23:10:49.911Z,100810.06
2023-02-26T23:15:51.879Z,100807.06
2023-02-26T23:20:54.440Z,100814.47
2023-02-26T23:25:56.138Z,100822.31
2023-02-26T23:30:57.953Z,100817.94
2023-02-26T23:35:59.698Z,100815.34
2023-02-26T23:41:01.503Z,100826.09
2023-02-26T23:46:03.764Z,100835.91
2023-02-26T23:51:05.639Z,100830.22
2023-02-26T23:56:07.573Z,100834.38
